Time;durP1;ratioP1;P1;durP2;ratioP2;P2;SDS_P1;SDS_P2;PMS_P1;PMS_P2;Temp;Humidity;BMP_temperature;BMP_pressure;BME280_temperature;BME280_humidity;BME280_pressure;Samples;Min_cycle;Max_cycle;Signal;HPM_P1;HPM_P2
2023/10/15 00:00:18;;;;;;;5.47;2.27;;;;;;;;;;5093808;28;20192;-76
2023/10/15 00:02:46;;;;;;;2.70;2.13;;;;;;;;;;5096638;28;20208;-76
2023/10/15 00:05:20;;;;;;;4.43;2.00;;;;;;;;;;5103458;27;20227;-76
2023/10/15 00:07:48;;;;;;;3.57;1.80;;;;;;;;;;5085852;28;20372;-75
2023/10/15 00:10:22;;;;;;;5.20;2.13;;;;;;;;;;5104212;28;20208;-75
2023/10/15 00:12:53;;;;;;;2.97;1.90;;;;;;;;;;5098731;27;20218;-75
2023/10/15 00:15:23;;;;;;;5.90;4.73;;;;;;;;;;5093687;28;20196;-74
2023/10/15 00:17:51;;;;;;;7.37;5.20;;;;;;;;;;5098674;28;20901;-75
2023/10/15 00:20:20;;;;;;;7.17;3.93;;;;;;;;;;5086712;28;20224;-75
2023/10/15 00:22:48;;;;;;;3.70;3.00;;;;;;;;;;5107556;27;20691;-75
2023/10/15 00:25:18;;;;;;;5.23;2.60;;;;;;;;;;5107801;27;20197;-76
2023/10/15 00:27:54;;;;;;;2.37;2.03;;;;;;;;;;5099339;27;20219;-75
2023/10/15 00:30:22;;;;;;;3.13;1.80;;;;;;;;;;5103607;27;20315;-73
2023/10/15 00:32:52;;;;;;;4.50;1.80;;;;;;;;;;5107775;27;20610;-75
2023/10/15 00:35:20;;;;;;;4.03;1.73;;;;;;;;;;5094129;27;20193;-74
2023/10/15 00:37:57;;;;;;;5.43;1.90;;;;;;;;;;5105879;27;20666;-76
2023/10/15 00:40:25;;;;;;;3.27;1.63;;;;;;;;;;5105133;27;20220;-74
2023/10/15 00:42:53;;;;;;;3.60;1.70;;;;;;;;;;5103252;28;20227;-74
2023/10/15 00:45:21;;;;;;;5.70;2.10;;;;;;;;;;5106155;27;20196;-74
2023/10/15 00:48:02;;;;;;;6.23;2.23;;;;;;;;;;5086679;28;20232;-74
2023/10/15 00:50:38;;;;;;;3.73;2.10;;;;;;;;;;5098119;28;20624;-77
2023/10/15 00:53:14;;;;;;;4.93;1.77;;;;;;;;;;5105860;27;20203;-75
2023/10/15 00:56:04;;;;;;;5.60;1.87;;;;;;;;;;5104995;27;20224;-77
2023/10/15 00:58:39;;;;;;;8.67;2.20;;;;;;;;;;5103471;27;20227;-74
2023/10/15 01:03:53;;;;;;;4.90;2.30;;;;;;;;;;5093224;27;20197;-76
2023/10/15 01:06:44;;;;;;;4.03;2.40;;;;;;;;;;5093289;28;20228;-76
2023/10/15 01:09:34;;;;;;;7.60;3.97;;;;;;;;;;5101256;27;20416;-74
2023/10/15 01:12:18;;;;;;;6.83;4.50;;;;;;;;;;5106522;27;20316;-75
2023/10/15 01:14:49;;;;;;;6.90;3.83;;;;;;;;;;5091200;28;20292;-76
2023/10/15 01:17:17;;;;;;;6.23;3.43;;;;;;;;;;5099822;27;20277;-78
2023/10/15 01:19:44;;;;;;;6.13;3.27;;;;;;;;;;5096630;28;20285;-76
2023/10/15 01:22:17;;;;;;;6.00;3.30;;;;;;;;;;5093145;28;20204;-75
2023/10/15 01:24:53;;;;;;;5.50;2.80;;;;;;;;;;5091639;28;20203;-76
2023/10/15 01:27:33;;;;;;;8.13;2.87;;;;;;;;;;5093203;27;20672;-77
2023/10/15 01:30:03;;;;;;;4.17;2.20;;;;;;;;;;5100012;28;20227;-75
2023/10/15 01:32:31;;;;;;;5.77;2.60;;;;;;;;;;5096570;28;20208;-76
2023/10/15 01:35:00;;;;;;;7.13;2.60;;;;;;;;;;5093753;27;20208;-76
2023/10/15 01:37:28;;;;;;;6.47;2.80;;;;;;;;;;5096352;27;20278;-74
2023/10/15 01:40:01;;;;;;;5.53;2.33;;;;;;;;;;5084206;27;20216;-76
2023/10/15 01:45:09;;;;;;;5.60;2.43;;;;;;;;;;5093081;27;20231;-75
2023/10/15 01:47:37;;;;;;;4.37;1.70;;;;;;;;;;5083752;28;20231;-75
2023/10/15 01:50:14;;;;;;;4.43;2.00;;;;;;;;;;5097002;27;20200;-77
2023/10/15 01:52:45;;;;;;;5.53;1.93;;;;;;;;;;5109102;27;20221;-75
2023/10/15 01:55:13;;;;;;;4.73;1.90;;;;;;;;;;5090651;28;20200;-75
2023/10/15 01:57:44;;;;;;;6.97;1.60;;;;;;;;;;5108671;27;20672;-74
2023/10/15 02:00:32;;;;;;;7.30;1.90;;;;;;;;;;5099647;27;21194;-74
2023/10/15 02:02:59;;;;;;;6.27;1.87;;;;;;;;;;5102733;27;20207;-73
2023/10/15 02:05:30;;;;;;;3.00;1.70;;;;;;;;;;5105907;27;20193;-74
2023/10/15 02:07:57;;;;;;;6.07;1.90;;;;;;;;;;5104237;27;20482;-74
2023/10/15 02:10:29;;;;;;;8.60;1.83;;;;;;;;;;5089820;28;20569;-75
2023/10/15 02:13:04;;;;;;;3.40;1.70;;;;;;;;;;5077214;28;20231;-76
2023/10/15 02:15:39;;;;;;;3.83;2.00;;;;;;;;;;5094749;27;20212;-75
2023/10/15 02:18:19;;;;;;;6.30;2.40;;;;;;;;;;5086025;27;21263;-74
2023/10/15 02:21:00;;;;;;;6.33;2.43;;;;;;;;;;5071552;28;20278;-75
2023/10/15 02:23:32;;;;;;;8.13;2.40;;;;;;;;;;5077029;27;20223;-77
2023/10/15 02:26:00;;;;;;;7.80;2.40;;;;;;;;;;5088335;28;20325;-77
2023/10/15 02:28:32;;;;;;;2.80;1.80;;;;;;;;;;5095911;28;20278;-76
2023/10/15 02:33:33;;;;;;;4.30;2.00;;;;;;;;;;5092657;28;20785;-77
2023/10/15 02:36:04;;;;;;;5.40;1.87;;;;;;;;;;5071032;28;20204;-75
2023/10/15 02:38:36;;;;;;;4.97;1.67;;;;;;;;;;5090814;27;20213;-77
2023/10/15 02:41:09;;;;;;;3.37;2.00;;;;;;;;;;5094918;28;20791;-78
2023/10/15 02:43:37;;;;;;;12.20;1.80;;;;;;;;;;5091891;28;20683;-77
2023/10/15 02:46:19;;;;;;;3.40;1.40;;;;;;;;;;5086422;27;20299;-75
2023/10/15 02:48:48;;;;;;;2.70;1.53;;;;;;;;;;5088264;28;20233;-73
2023/10/15 02:51:23;;;;;;;1.87;1.57;;;;;;;;;;5073929;28;20254;-75
2023/10/15 02:53:55;;;;;;;4.97;1.47;;;;;;;;;;5091572;28;20209;-74
2023/10/15 02:56:23;;;;;;;2.27;1.40;;;;;;;;;;5086845;27;20810;-75
2023/10/15 02:58:51;;;;;;;3.67;1.63;;;;;;;;;;5090845;27;20220;-76
2023/10/15 03:01:24;;;;;;;4.53;1.50;;;;;;;;;;5086530;28;20197;-77
2023/10/15 03:03:54;;;;;;;4.20;1.47;;;;;;;;;;5069841;28;20201;-76
2023/10/15 03:06:34;;;;;;;6.13;1.67;;;;;;;;;;5081685;28;20729;-75
2023/10/15 03:09:11;;;;;;;3.17;1.40;;;;;;;;;;5087474;28;20228;-77
2023/10/15 03:11:38;;;;;;;4.13;2.00;;;;;;;;;;5074713;28;20762;-76
2023/10/15 03:14:06;;;;;;;4.40;1.77;;;;;;;;;;5092469;27;20208;-76
2023/10/15 03:16:35;;;;;;;2.83;1.70;;;;;;;;;;5082828;28;21241;-76
2023/10/15 03:19:17;;;;;;;3.83;1.50;;;;;;;;;;5077808;28;20261;-77
2023/10/15 03:21:44;;;;;;;2.70;1.40;;;;;;;;;;5090508;28;20209;-77
2023/10/15 03:24:15;;;;;;;5.47;1.50;;;;;;;;;;5093170;28;20668;-77
2023/10/15 03:26:47;;;;;;;2.47;1.70;;;;;;;;;;5090756;28;20200;-76
2023/10/15 03:29:15;;;;;;;6.90;1.70;;;;;;;;;;5085196;28;20837;-75
2023/10/15 03:31:48;;;;;;;4.83;1.97;;;;;;;;;;5084089;28;20207;-76
2023/10/15 03:34:21;;;;;;;5.20;1.90;;;;;;;;;;5091749;28;20571;-76
2023/10/15 03:36:58;;;;;;;8.07;2.00;;;;;;;;;;5090911;28;20258;-76
2023/10/15 03:42:09;;;;;;;5.60;1.53;;;;;;;;;;5094942;27;20273;-75
2023/10/15 03:44:44;;;;;;;5.00;1.63;;;;;;;;;;5077736;27;20285;-77
2023/10/15 03:47:13;;;;;;;3.53;1.50;;;;;;;;;;5095178;27;20222;-78
2023/10/15 03:49:44;;;;;;;4.97;1.97;;;;;;;;;;5095018;27;20632;-77
2023/10/15 03:52:15;;;;;;;4.63;1.70;;;;;;;;;;5089723;27;20203;-77
2023/10/15 03:54:47;;;;;;;3.73;1.67;;;;;;;;;;5080062;28;20555;-77
2023/10/15 03:57:18;;;;;;;5.27;1.70;;;;;;;;;;5103259;28;20687;-77
2023/10/15 03:59:55;;;;;;;3.97;1.50;;;;;;;;;;5100188;27;20199;-77
2023/10/15 04:02:37;;;;;;;5.70;2.00;;;;;;;;;;5082961;28;20206;-76
2023/10/15 04:05:14;;;;;;;4.30;1.60;;;;;;;;;;5093923;27;20204;-78
2023/10/15 04:07:48;;;;;;;7.13;1.80;;;;;;;;;;5093254;27;20219;-77
2023/10/15 04:10:23;;;;;;;5.83;1.50;;;;;;;;;;5076530;28;20207;-77
2023/10/15 04:12:51;;;;;;;4.00;1.60;;;;;;;;;;5093331;27;20223;-77
2023/10/15 04:15:21;;;;;;;4.00;1.80;;;;;;;;;;5091101;27;20287;-78
2023/10/15 04:17:51;;;;;;;8.73;2.10;;;;;;;;;;5094381;27;20314;-77
2023/10/15 04:20:33;;;;;;;5.23;1.67;;;;;;;;;;5097957;27;20288;-78
2023/10/15 04:23:00;;;;;;;3.43;1.40;;;;;;;;;;5089957;27;20215;-77
2023/10/15 04:25:36;;;;;;;5.07;1.80;;;;;;;;;;5101244;27;20206;-77
2023/10/15 04:28:09;;;;;;;6.07;1.80;;;;;;;;;;5097961;27;20235;-78
2023/10/15 04:30:38;;;;;;;4.83;1.40;;;;;;;;;;5101214;27;20200;-78
2023/10/15 04:33:15;;;;;;;3.53;1.60;;;;;;;;;;5091056;27;20678;-77
2023/10/15 04:35:42;;;;;;;2.27;1.47;;;;;;;;;;5078178;27;20261;-76
2023/10/15 04:38:18;;;;;;;5.57;1.93;;;;;;;;;;5105883;27;20331;-75
2023/10/15 04:41:03;;;;;;;4.83;1.50;;;;;;;;;;5105601;28;20244;-75
2023/10/15 04:43:41;;;;;;;6.43;1.50;;;;;;;;;;5102954;28;20192;-75
2023/10/15 04:46:08;;;;;;;5.80;1.80;;;;;;;;;;5113726;27;20227;-75
2023/10/15 04:48:39;;;;;;;5.93;3.10;;;;;;;;;;5100884;27;20648;-75
2023/10/15 04:51:12;;;;;;;3.37;1.60;;;;;;;;;;5086654;27;20263;-75
2023/10/15 04:53:52;;;;;;;6.60;1.80;;;;;;;;;;5102786;27;20196;-76
2023/10/15 04:56:23;;;;;;;5.93;1.70;;;;;;;;;;5102998;27;20343;-73
2023/10/15 04:58:50;;;;;;;3.97;1.90;;;;;;;;;;5107738;28;20223;-74
2023/10/15 05:01:17;;;;;;;9.33;3.70;;;;;;;;;;5102090;27;20249;-75
2023/10/15 05:03:48;;;;;;;6.77;3.43;;;;;;;;;;5087123;28;20219;-74
2023/10/15 05:06:15;;;;;;;6.53;2.17;;;;;;;;;;5082587;28;20205;-74
2023/10/15 05:08:47;;;;;;;3.40;1.70;;;;;;;;;;5084442;27;20712;-73
2023/10/15 05:11:21;;;;;;;3.57;1.80;;;;;;;;;;5100185;28;20207;-76
2023/10/15 05:13:49;;;;;;;3.07;1.70;;;;;;;;;;5110431;27;20202;-76
2023/10/15 05:16:18;;;;;;;3.80;1.90;;;;;;;;;;5079958;28;20292;-75
2023/10/15 05:18:48;;;;;;;5.03;1.87;;;;;;;;;;5094619;27;20228;-76
2023/10/15 05:21:16;;;;;;;3.70;1.83;;;;;;;;;;5090181;27;20204;-78
2023/10/15 05:23:44;;;;;;;3.63;1.53;;;;;;;;;;5092889;28;20201;-78
2023/10/15 05:26:13;;;;;;;4.50;1.70;;;;;;;;;;5085353;27;20320;-76
2023/10/15 05:28:40;;;;;;;4.57;2.43;;;;;;;;;;5078058;28;20312;-77
2023/10/15 05:31:07;;;;;;;4.10;2.00;;;;;;;;;;5095321;27;20200;-76
2023/10/15 05:33:34;;;;;;;4.00;1.80;;;;;;;;;;5095608;28;20211;-77
2023/10/15 05:36:02;;;;;;;4.03;1.90;;;;;;;;;;5096219;28;20247;-76
2023/10/15 05:38:38;;;;;;;3.87;1.77;;;;;;;;;;5098259;27;20227;-74
2023/10/15 05:41:09;;;;;;;6.67;2.20;;;;;;;;;;5077043;27;20218;-75
2023/10/15 05:43:36;;;;;;;4.70;2.30;;;;;;;;;;5072179;28;20219;-77
2023/10/15 05:46:03;;;;;;;5.80;2.03;;;;;;;;;;5090848;28;20228;-74
2023/10/15 05:48:31;;;;;;;4.77;2.37;;;;;;;;;;5093164;28;20224;-74
2023/10/15 05:50:58;;;;;;;14.27;7.97;;;;;;;;;;5091795;27;20414;-78
2023/10/15 05:53:25;;;;;;;5.77;3.20;;;;;;;;;;5076267;28;20254;-77
2023/10/15 05:55:52;;;;;;;3.27;2.20;;;;;;;;;;5100204;28;20204;-76
2023/10/15 05:58:20;;;;;;;3.90;2.37;;;;;;;;;;5093302;28;20235;-77
2023/10/15 06:00:47;;;;;;;6.57;2.13;;;;;;;;;;5089927;28;20772;-77
2023/10/15 06:03:14;;;;;;;2.73;1.90;;;;;;;;;;5079748;28;20932;-77
2023/10/15 06:05:42;;;;;;;2.90;2.53;;;;;;;;;;5093959;28;20808;-77
2023/10/15 06:08:09;;;;;;;2.93;1.77;;;;;;;;;;5080991;27;20229;-77
2023/10/15 06:10:36;;;;;;;3.80;2.00;;;;;;;;;;5098587;28;20740;-76
2023/10/15 06:13:04;;;;;;;3.60;2.07;;;;;;;;;;5095989;28;20200;-76
2023/10/15 06:15:31;;;;;;;2.83;1.77;;;;;;;;;;5091990;28;20261;-76
2023/10/15 06:17:58;;;;;;;4.13;2.00;;;;;;;;;;5096801;28;20699;-76
2023/10/15 06:20:26;;;;;;;3.03;1.70;;;;;;;;;;5094973;27;20211;-77
2023/10/15 06:22:55;;;;;;;3.57;1.67;;;;;;;;;;5098154;27;20212;-76
2023/10/15 06:25:24;;;;;;;1.93;1.60;;;;;;;;;;5087081;27;26257;-76
2023/10/15 06:27:52;;;;;;;3.40;1.50;;;;;;;;;;5101547;28;20446;-76
2023/10/15 06:30:19;;;;;;;2.53;1.80;;;;;;;;;;5097290;28;20212;-76
2023/10/15 06:32:54;;;;;;;4.90;1.77;;;;;;;;;;5087970;28;20235;-76
2023/10/15 06:35:25;;;;;;;4.73;2.10;;;;;;;;;;5088838;27;20213;-78
2023/10/15 06:37:57;;;;;;;5.07;3.10;;;;;;;;;;5088936;28;20225;-75
2023/10/15 06:40:26;;;;;;;2.90;1.50;;;;;;;;;;5073727;28;20200;-76
2023/10/15 06:43:01;;;;;;;2.87;1.57;;;;;;;;;;5090216;28;20675;-75
2023/10/15 06:45:29;;;;;;;3.87;1.50;;;;;;;;;;5095050;28;20203;-76
2023/10/15 06:47:57;;;;;;;2.17;1.27;;;;;;;;;;5094609;28;20232;-74
2023/10/15 06:50:24;;;;;;;3.40;1.37;;;;;;;;;;5103967;28;20211;-75
2023/10/15 06:52:54;;;;;;;3.93;1.37;;;;;;;;;;5101120;28;20415;-76
2023/10/15 06:55:22;;;;;;;3.50;2.93;;;;;;;;;;5075526;28;20213;-77
2023/10/15 06:57:50;;;;;;;2.43;1.63;;;;;;;;;;5101425;27;20742;-76
2023/10/15 07:00:21;;;;;;;4.80;3.43;;;;;;;;;;5104802;27;20637;-75
2023/10/15 07:02:53;;;;;;;3.20;1.90;;;;;;;;;;5098040;28;20218;-75
2023/10/15 07:05:23;;;;;;;1.80;1.40;;;;;;;;;;5094630;28;20207;-77
2023/10/15 07:07:51;;;;;;;3.57;1.70;;;;;;;;;;5100342;28;20284;-75
2023/10/15 07:10:18;;;;;;;2.53;2.03;;;;;;;;;;5092180;28;20201;-77
2023/10/15 07:12:47;;;;;;;5.07;2.97;;;;;;;;;;5091437;28;20710;-75
2023/10/15 07:15:16;;;;;;;6.47;4.10;;;;;;;;;;5088941;28;20202;-77
2023/10/15 07:17:43;;;;;;;2.80;1.87;;;;;;;;;;5096603;28;20236;-78
2023/10/15 07:20:14;;;;;;;4.13;1.90;;;;;;;;;;5095320;28;20204;-76
2023/10/15 07:22:43;;;;;;;2.10;1.70;;;;;;;;;;5101523;28;20274;-76
2023/10/15 07:25:10;;;;;;;2.43;1.60;;;;;;;;;;5094950;27;20228;-75
2023/10/15 07:27:42;;;;;;;3.43;2.50;;;;;;;;;;5072943;28;20903;-78
2023/10/15 07:30:12;;;;;;;4.17;1.97;;;;;;;;;;5092648;28;20204;-78
2023/10/15 07:32:40;;;;;;;2.53;1.60;;;;;;;;;;5084614;28;20212;-74
2023/10/15 07:35:11;;;;;;;1.97;1.53;;;;;;;;;;5085091;28;20482;-74
2023/10/15 07:37:46;;;;;;;2.73;1.70;;;;;;;;;;5090607;28;20224;-75
2023/10/15 07:40:21;;;;;;;6.73;4.03;;;;;;;;;;5092653;28;20208;-76
2023/10/15 07:43:02;;;;;;;6.67;2.93;;;;;;;;;;5080872;28;20230;-77
2023/10/15 07:45:32;;;;;;;1.93;1.57;;;;;;;;;;5090279;28;20196;-76
2023/10/15 07:48:04;;;;;;;11.37;4.80;;;;;;;;;;5080470;28;20297;-76
2023/10/15 07:50:34;;;;;;;1.63;1.53;;;;;;;;;;5091936;28;20223;-77
2023/10/15 07:53:02;;;;;;;7.10;2.53;;;;;;;;;;5086396;28;20201;-76
2023/10/15 07:55:31;;;;;;;2.77;1.57;;;;;;;;;;5079605;28;20630;-76
2023/10/15 07:57:58;;;;;;;0.93;0.93;;;;;;;;;;5092930;28;20242;-77
2023/10/15 08:00:26;;;;;;;3.83;1.63;;;;;;;;;;5064941;28;20242;-77
2023/10/15 08:02:57;;;;;;;2.73;1.60;;;;;;;;;;5088468;28;20551;-77
2023/10/15 08:05:26;;;;;;;3.13;1.47;;;;;;;;;;5084293;28;21344;-76
2023/10/15 08:07:54;;;;;;;2.30;1.30;;;;;;;;;;5083387;28;20401;-77
2023/10/15 08:10:21;;;;;;;1.30;1.20;;;;;;;;;;5087580;28;20284;-77
2023/10/15 08:12:49;;;;;;;3.57;1.70;;;;;;;;;;5087763;28;20237;-76
2023/10/15 08:15:20;;;;;;;3.63;1.20;;;;;;;;;;5090607;28;20209;-79
2023/10/15 08:17:47;;;;;;;2.97;1.27;;;;;;;;;;5082950;28;20259;-77
2023/10/15 08:20:15;;;;;;;1.50;1.40;;;;;;;;;;5083624;28;20196;-77
2023/10/15 08:22:44;;;;;;;3.17;1.50;;;;;;;;;;5087675;28;22530;-78
2023/10/15 08:25:14;;;;;;;2.67;1.53;;;;;;;;;;5087351;28;20197;-78
2023/10/15 08:27:45;;;;;;;2.80;1.80;;;;;;;;;;5095543;27;21532;-76
2023/10/15 08:30:13;;;;;;;4.10;1.40;;;;;;;;;;5091739;27;20219;-76
2023/10/15 08:32:46;;;;;;;2.13;1.53;;;;;;;;;;5086442;28;20209;-77
2023/10/15 08:35:14;;;;;;;2.53;1.40;;;;;;;;;;5085751;28;20541;-75
2023/10/15 08:37:45;;;;;;;2.10;1.70;;;;;;;;;;5087917;28;20270;-76
2023/10/15 08:40:30;;;;;;;4.87;2.33;;;;;;;;;;5090010;28;20204;-77
2023/10/15 08:43:00;;;;;;;7.77;3.33;;;;;;;;;;5086119;28;20201;-78
2023/10/15 08:45:27;;;;;;;1.40;1.30;;;;;;;;;;5076645;28;20261;-78
2023/10/15 08:47:54;;;;;;;3.57;2.50;;;;;;;;;;5094653;27;20236;-78
2023/10/15 08:50:23;;;;;;;2.00;1.43;;;;;;;;;;5105662;27;20243;-76
2023/10/15 08:52:56;;;;;;;3.63;1.70;;;;;;;;;;5072140;28;20209;-77
2023/10/15 08:55:27;;;;;;;3.27;1.70;;;;;;;;;;5104917;28;20264;-75
2023/10/15 08:58:27;;;;;;;2.40;1.60;;;;;;;;;;5095297;27;20319;-77
2023/10/15 09:01:00;;;;;;;4.63;1.70;;;;;;;;;;5095502;27;20258;-78
2023/10/15 09:03:27;;;;;;;4.53;1.63;;;;;;;;;;5096539;28;20211;-78
2023/10/15 09:05:55;;;;;;;5.63;2.07;;;;;;;;;;5091254;28;20213;-76
2023/10/15 09:08:23;;;;;;;4.47;2.30;;;;;;;;;;5092822;27;20228;-75
2023/10/15 09:10:52;;;;;;;2.77;1.80;;;;;;;;;;5094746;27;20634;-78
2023/10/15 09:13:21;;;;;;;5.53;1.93;;;;;;;;;;5081039;28;20278;-74
2023/10/15 09:15:55;;;;;;;2.60;1.80;;;;;;;;;;5100823;27;20200;-77
2023/10/15 09:18:26;;;;;;;17.27;7.80;;;;;;;;;;5097706;28;20231;-78
2023/10/15 09:20:58;;;;;;;4.50;2.20;;;;;;;;;;5094796;28;20292;-78
2023/10/15 09:23:31;;;;;;;4.10;1.90;;;;;;;;;;5078698;28;20217;-78
2023/10/15 09:26:00;;;;;;;4.70;1.83;;;;;;;;;;5084142;27;20221;-78
2023/10/15 09:28:39;;;;;;;2.77;1.90;;;;;;;;;;5080922;28;20232;-78
2023/10/15 09:31:09;;;;;;;5.03;1.80;;;;;;;;;;5090486;28;20218;-79
2023/10/15 09:33:37;;;;;;;3.13;1.43;;;;;;;;;;5093925;27;20215;-77
2023/10/15 09:36:05;;;;;;;4.00;1.70;;;;;;;;;;5093042;27;20261;-77
2023/10/15 09:38:33;;;;;;;5.30;2.03;;;;;;;;;;5092191;28;20235;-77
2023/10/15 09:41:01;;;;;;;3.23;1.53;;;;;;;;;;5091616;28;20208;-78
2023/10/15 09:43:35;;;;;;;4.67;1.90;;;;;;;;;;5098440;28;20202;-77
2023/10/15 09:46:05;;;;;;;3.53;1.60;;;;;;;;;;5094390;27;20283;-76
2023/10/15 09:48:36;;;;;;;6.17;3.33;;;;;;;;;;5096121;28;20236;-78
2023/10/15 09:51:04;;;;;;;5.40;2.60;;;;;;;;;;5092788;27;20205;-78
2023/10/15 09:53:34;;;;;;;2.40;1.70;;;;;;;;;;5098039;28;20842;-78
2023/10/15 09:56:07;;;;;;;5.27;1.80;;;;;;;;;;5080626;28;20200;-78
2023/10/15 09:58:35;;;;;;;2.27;1.53;;;;;;;;;;5088392;27;20252;-79
2023/10/15 10:01:16;;;;;;;7.33;3.60;;;;;;;;;;5091955;27;20215;-79
2023/10/15 10:03:47;;;;;;;4.20;1.93;;;;;;;;;;5098180;28;20220;-79
2023/10/15 10:06:30;;;;;;;3.23;1.60;;;;;;;;;;5088875;28;20552;-79
2023/10/15 10:09:06;;;;;;;2.90;1.40;;;;;;;;;;5093006;27;20221;-79
2023/10/15 10:11:45;;;;;;;2.03;1.30;;;;;;;;;;5073815;28;20208;-78
2023/10/15 10:14:38;;;;;;;1.87;1.50;;;;;;;;;;5087709;28;20212;-77
2023/10/15 10:17:06;;;;;;;3.77;1.40;;;;;;;;;;5089367;27;20219;-76
2023/10/15 10:19:34;;;;;;;2.23;1.50;;;;;;;;;;5088907;28;20238;-75
2023/10/15 10:22:01;;;;;;;2.30;1.40;;;;;;;;;;5098825;27;20683;-75
2023/10/15 10:24:42;;;;;;;3.90;1.60;;;;;;;;;;5097555;27;20196;-76
2023/10/15 10:27:16;;;;;;;3.07;1.93;;;;;;;;;;5093436;27;20203;-75
2023/10/15 10:29:44;;;;;;;3.23;1.43;;;;;;;;;;5095945;27;20212;-75
2023/10/15 10:32:13;;;;;;;4.70;1.40;;;;;;;;;;5090962;28;20624;-75
2023/10/15 10:34:41;;;;;;;4.23;1.70;;;;;;;;;;5096219;28;20661;-77
2023/10/15 10:37:21;;;;;;;7.13;2.60;;;;;;;;;;5098932;27;20207;-78
2023/10/15 10:39:49;;;;;;;5.63;1.67;;;;;;;;;;5096149;27;20222;-76
2023/10/15 10:42:21;;;;;;;4.50;1.83;;;;;;;;;;5094970;28;20197;-77
2023/10/15 10:44:49;;;;;;;4.13;1.50;;;;;;;;;;5089428;28;20679;-76
2023/10/15 10:47:19;;;;;;;5.80;2.53;;;;;;;;;;5096685;27;20669;-76
2023/10/15 10:49:55;;;;;;;2.10;1.50;;;;;;;;;;5098153;27;20208;-76
2023/10/15 10:52:29;;;;;;;5.97;2.13;;;;;;;;;;5095919;27;20196;-78
2023/10/15 10:54:57;;;;;;;2.30;1.33;;;;;;;;;;5091912;27;20204;-75
2023/10/15 10:57:41;;;;;;;1.97;1.30;;;;;;;;;;5095688;27;20200;-75
2023/10/15 11:00:12;;;;;;;2.33;1.47;;;;;;;;;;5082084;28;20231;-76
2023/10/15 11:02:39;;;;;;;3.30;1.20;;;;;;;;;;5094740;27;20203;-76
2023/10/15 11:05:11;;;;;;;2.83;1.50;;;;;;;;;;5097280;28;20232;-78
2023/10/15 11:07:40;;;;;;;1.20;1.10;;;;;;;;;;5113889;27;20234;-77
2023/10/15 11:10:09;;;;;;;1.77;1.10;;;;;;;;;;5101292;27;20207;-77
2023/10/15 11:12:38;;;;;;;4.63;2.73;;;;;;;;;;5093163;28;20341;-79
2023/10/15 11:15:08;;;;;;;6.10;2.03;;;;;;;;;;5094371;28;20261;-78
2023/10/15 11:17:35;;;;;;;4.10;2.90;;;;;;;;;;5080399;28;20274;-77
2023/10/15 11:20:06;;;;;;;4.00;1.93;;;;;;;;;;5091659;28;20605;-77
2023/10/15 11:22:33;;;;;;;7.47;5.00;;;;;;;;;;5085569;28;20211;-77
2023/10/15 11:25:01;;;;;;;3.03;2.60;;;;;;;;;;5069653;28;20207;-78
2023/10/15 11:27:28;;;;;;;4.83;1.87;;;;;;;;;;5092284;28;20563;-77
2023/10/15 11:29:56;;;;;;;2.30;1.67;;;;;;;;;;5091139;28;20204;-78
2023/10/15 11:32:24;;;;;;;2.33;1.40;;;;;;;;;;5087165;28;20205;-78
2023/10/15 11:34:54;;;;;;;5.07;2.00;;;;;;;;;;5095335;28;20307;-79
2023/10/15 11:37:23;;;;;;;3.33;1.63;;;;;;;;;;5091676;28;20236;-78
2023/10/15 11:39:51;;;;;;;3.33;1.50;;;;;;;;;;5096377;28;20239;-78
2023/10/15 11:42:19;;;;;;;2.17;1.37;;;;;;;;;;5099738;28;20195;-78
2023/10/15 11:44:55;;;;;;;1.67;1.20;;;;;;;;;;5074850;28;20228;-78
2023/10/15 11:47:32;;;;;;;2.40;1.40;;;;;;;;;;5079337;28;20324;-79
2023/10/15 11:50:06;;;;;;;1.30;1.20;;;;;;;;;;5081282;28;20208;-78
2023/10/15 11:52:44;;;;;;;2.17;1.27;;;;;;;;;;5094104;28;20201;-78
2023/10/15 11:55:19;;;;;;;5.97;3.47;;;;;;;;;;5077911;28;20210;-78
2023/10/15 11:57:49;;;;;;;2.53;1.40;;;;;;;;;;5090581;28;20247;-76
2023/10/15 12:00:31;;;;;;;3.30;1.77;;;;;;;;;;5094101;28;20212;-77
2023/10/15 12:03:02;;;;;;;2.23;1.60;;;;;;;;;;5095383;28;20550;-76
2023/10/15 12:05:33;;;;;;;3.97;2.70;;;;;;;;;;5099961;28;20204;-77
2023/10/15 12:08:00;;;;;;;8.83;3.40;;;;;;;;;;5105459;27;20620;-76
2023/10/15 12:10:28;;;;;;;2.30;1.63;;;;;;;;;;5099362;27;20675;-76
2023/10/15 12:13:04;;;;;;;5.83;2.77;;;;;;;;;;5098511;27;21412;-77
2023/10/15 12:15:34;;;;;;;4.60;2.40;;;;;;;;;;5085375;28;20223;-76
2023/10/15 12:18:29;;;;;;;3.23;2.13;;;;;;;;;;5097031;27;20308;-76
2023/10/15 12:20:59;;;;;;;2.23;1.80;;;;;;;;;;5091512;28;20213;-74
2023/10/15 12:23:27;;;;;;;2.20;1.87;;;;;;;;;;5095752;28;20591;-74
2023/10/15 12:25:55;;;;;;;1.60;1.10;;;;;;;;;;5104410;28;20212;-73
2023/10/15 12:28:22;;;;;;;2.67;1.30;;;;;;;;;;5103440;27;20243;-74
2023/10/15 12:30:50;;;;;;;2.40;1.20;;;;;;;;;;5099397;27;20196;-74
2023/10/15 12:33:17;;;;;;;3.90;1.47;;;;;;;;;;5099511;28;20291;-74
2023/10/15 12:35:50;;;;;;;1.73;1.10;;;;;;;;;;5102197;27;20288;-72
2023/10/15 12:38:26;;;;;;;2.80;1.73;;;;;;;;;;5077001;27;20228;-73
2023/10/15 12:40:55;;;;;;;5.67;2.70;;;;;;;;;;5087558;27;23497;-75
2023/10/15 12:43:22;;;;;;;3.03;1.83;;;;;;;;;;5082890;27;20200;-75
2023/10/15 12:45:52;;;;;;;6.30;2.97;;;;;;;;;;5094473;27;20593;-74
2023/10/15 12:48:20;;;;;;;5.63;2.20;;;;;;;;;;5105255;28;20220;-75
2023/10/15 12:50:47;;;;;;;3.40;2.57;;;;;;;;;;5093436;27;20303;-76
2023/10/15 12:53:15;;;;;;;2.30;1.80;;;;;;;;;;5098075;27;20744;-76
2023/10/15 12:55:43;;;;;;;1.50;1.40;;;;;;;;;;5097498;27;20214;-74
2023/10/15 12:58:10;;;;;;;1.40;1.30;;;;;;;;;;5096919;27;20269;-75
2023/10/15 13:00:43;;;;;;;3.60;2.07;;;;;;;;;;5084086;27;20310;-75
2023/10/15 13:03:12;;;;;;;6.83;3.57;;;;;;;;;;5097332;27;20207;-75
2023/10/15 13:05:40;;;;;;;3.57;2.30;;;;;;;;;;5094970;28;20270;-74
2023/10/15 13:08:07;;;;;;;1.53;1.43;;;;;;;;;;5082717;27;20235;-75
2023/10/15 13:10:34;;;;;;;1.83;1.73;;;;;;;;;;5082481;28;20211;-75
2023/10/15 13:13:02;;;;;;;2.03;1.23;;;;;;;;;;5099856;27;20209;-73
2023/10/15 13:15:29;;;;;;;1.83;1.43;;;;;;;;;;5080046;28;20201;-75
2023/10/15 13:17:57;;;;;;;2.77;1.30;;;;;;;;;;5078350;27;20220;-76
2023/10/15 13:20:25;;;;;;;1.43;1.30;;;;;;;;;;5088274;27;20312;-76
2023/10/15 13:22:53;;;;;;;2.43;1.47;;;;;;;;;;5090119;27;20205;-75
2023/10/15 13:25:22;;;;;;;3.03;1.50;;;;;;;;;;5083726;27;20249;-74
2023/10/15 13:27:50;;;;;;;2.10;1.70;;;;;;;;;;5084786;27;20228;-73
2023/10/15 13:30:18;;;;;;;1.40;1.30;;;;;;;;;;5072125;28;20640;-73
2023/10/15 13:32:46;;;;;;;5.70;3.40;;;;;;;;;;5083343;28;20209;-73
2023/10/15 13:35:13;;;;;;;5.67;3.17;;;;;;;;;;5082003;27;20307;-73
2023/10/15 13:37:42;;;;;;;4.23;3.10;;;;;;;;;;5085144;28;20228;-73
2023/10/15 13:40:10;;;;;;;4.27;2.97;;;;;;;;;;5063649;28;20235;-74
2023/10/15 13:42:39;;;;;;;2.63;1.60;;;;;;;;;;5081866;27;20201;-75
2023/10/15 13:45:06;;;;;;;3.17;1.50;;;;;;;;;;5088418;27;20258;-76
2023/10/15 13:47:37;;;;;;;6.90;4.17;;;;;;;;;;5083363;27;21935;-75
2023/10/15 13:50:17;;;;;;;3.13;1.43;;;;;;;;;;5073420;28;20204;-76
2023/10/15 13:52:45;;;;;;;3.27;1.37;;;;;;;;;;5093005;27;20204;-76
2023/10/15 13:55:12;;;;;;;4.67;1.40;;;;;;;;;;5080175;28;20298;-76
2023/10/15 13:57:40;;;;;;;10.60;6.87;;;;;;;;;;5085777;27;20312;-76
2023/10/15 14:00:11;;;;;;;2.40;1.63;;;;;;;;;;5099613;27;20268;-74
2023/10/15 14:02:49;;;;;;;4.27;1.60;;;;;;;;;;5100516;27;20249;-76
2023/10/15 14:05:17;;;;;;;3.87;1.23;;;;;;;;;;5078512;28;20208;-75
2023/10/15 14:07:45;;;;;;;2.80;1.80;;;;;;;;;;5090468;27;20216;-76
2023/10/15 14:10:15;;;;;;;1.90;1.50;;;;;;;;;;5098870;27;20208;-75
2023/10/15 14:12:47;;;;;;;2.20;1.27;;;;;;;;;;5096673;27;20690;-76
2023/10/15 14:15:32;;;;;;;2.13;1.40;;;;;;;;;;5082824;28;20208;-76
2023/10/15 14:17:59;;;;;;;2.07;1.20;;;;;;;;;;5102320;27;20258;-76
2023/10/15 14:20:27;;;;;;;2.60;1.50;;;;;;;;;;5113653;27;20594;-75
2023/10/15 14:22:57;;;;;;;5.93;3.50;;;;;;;;;;5099563;27;20937;-76
2023/10/15 14:25:25;;;;;;;3.23;1.80;;;;;;;;;;5093295;27;20193;-75
2023/10/15 14:27:52;;;;;;;2.37;2.00;;;;;;;;;;5103921;27;20324;-76
2023/10/15 14:30:19;;;;;;;9.57;3.97;;;;;;;;;;5088705;28;20208;-77
2023/10/15 14:32:46;;;;;;;2.57;1.57;;;;;;;;;;5092924;27;20211;-77
2023/10/15 14:35:14;;;;;;;3.13;1.70;;;;;;;;;;5086271;28;20427;-77
2023/10/15 14:37:41;;;;;;;2.47;1.60;;;;;;;;;;5078124;27;20762;-77
2023/10/15 14:40:09;;;;;;;3.23;1.10;;;;;;;;;;5082361;27;20232;-75
2023/10/15 14:42:37;;;;;;;2.93;1.53;;;;;;;;;;5079887;28;20667;-77
2023/10/15 14:45:11;;;;;;;2.33;1.30;;;;;;;;;;5088371;27;21045;-76
2023/10/15 14:47:39;;;;;;;2.63;1.30;;;;;;;;;;5080722;28;20192;-76
2023/10/15 14:50:07;;;;;;;3.43;1.53;;;;;;;;;;5076228;27;20302;-78
2023/10/15 14:52:34;;;;;;;1.60;1.50;;;;;;;;;;5066659;28;20208;-78
2023/10/15 14:55:01;;;;;;;3.27;1.50;;;;;;;;;;5064897;28;20295;-77
2023/10/15 14:57:29;;;;;;;3.00;1.50;;;;;;;;;;5065731;28;20809;-76
2023/10/15 14:59:57;;;;;;;2.63;1.30;;;;;;;;;;5078177;28;20263;-76
2023/10/15 15:02:24;;;;;;;3.30;1.57;;;;;;;;;;5085547;27;20294;-77
2023/10/15 15:04:52;;;;;;;2.10;1.50;;;;;;;;;;5076433;27;20208;-78
2023/10/15 15:07:20;;;;;;;2.13;1.60;;;;;;;;;;5080448;28;20204;-77
2023/10/15 15:09:47;;;;;;;1.63;1.03;;;;;;;;;;5084000;28;20208;-77
2023/10/15 15:12:15;;;;;;;7.87;5.67;;;;;;;;;;5079975;28;20680;-77
2023/10/15 15:14:42;;;;;;;2.90;2.50;;;;;;;;;;5076377;28;20213;-78